Kezdőlap
METAR-TAF:

METAR-TAF

Repülőterek :

Bermuda, Bermuda

földrajzi szélesség: 32-22N, földrajzi hosszúság: 064-41W, magasság: 6 m

Jelenlegi meteorológiai megfigyelések

A jelentés 37 perccel ezelõtt készült, 11:11 UTC
Északkeleti szél 11 kt
Hőmérséklet 21°C
Páratartalom 73%
Légköri nyomás 1021 hPa
Látótávolság 10 km, vagy több
Szakadozott felhőzet 3000 lábon
Szakadozott felhőzet 7500 lábon
Záporok a közelben

METAR: TXKF 231111Z 05011KT 9999 VCSH BKN030 BKN075 21/16 Q1021 RMK WSHFT11

Idő: 08:48 (11:48 UTC)

Előrejelzés

A jelentés 16 perccel ezelõtt készült, 11:32 UTC
Az előrejelzés 23-én 12 óra UTC és 24-én 12 óra UTC között érvényes
Kelet-északkeleti szél 12 kt
Látótávolság 10 km, vagy több
Szakadozott felhőzet 3000 lábon
Szakadozott felhőzet 7500 lábon

TAF: TXKF 231132Z 2312/2412 07012KT 9999 BKN030 BKN075

Meteorológiai megfigyelések és előrejelzések több, mint 4000 repülőtéren (METAR és TAF jelentéseket).

A térképen piros és sárga pontok jelzik az elérhető meteorológiai állomásokat.

Mozgassa az egeret a pont fölött, hogy megjelenjen az állomás neve.

Azután kattintson az időjárási megfigyelések és előrejelzések megtekintéséhez.

A térkép megváltoztatása: kattintson a fekete keresztel jelölt zöld gombra ráközelítéshez, a vonallal jelölt zöld gombra távolításhoz, vagy a zöld nyilakra a szomszédos térképek eléréséhez.


METAR-TAF: